createdAt,value
2022-09-10T00:02:00.383Z,100036.52
2022-09-10T00:04:31.253Z,100037.88
2022-09-10T00:07:02.092Z,100033.21
2022-09-10T00:09:32.719Z,100037.30
2022-09-10T00:12:03.905Z,100034.18
2022-09-10T00:14:35.799Z,100031.42
2022-09-10T00:17:06.768Z,100032.35
2022-09-10T00:19:37.440Z,100029.75
2022-09-10T00:22:10.497Z,100030.13
2022-09-10T00:24:41.345Z,100036.73
2022-09-10T00:27:11.923Z,100034.58
2022-09-10T00:29:42.710Z,100033.84
2022-09-10T00:32:14.786Z,100039.57
2022-09-10T00:34:45.694Z,100031.73
2022-09-10T00:37:18.363Z,100027.89
2022-09-10T00:39:49.168Z,100029.33
2022-09-10T00:42:19.961Z,100031.44
2022-09-10T00:45:05.718Z,100032.80
2022-09-10T00:47:38.679Z,100027.23
2022-09-10T00:50:18.611Z,100023.80
2022-09-10T00:52:49.791Z,100025.58
2022-09-10T00:55:22.007Z,100027.27
2022-09-10T00:57:54.674Z,100024.21
2022-09-10T01:00:26.052Z,100033.30
2022-09-10T01:02:56.822Z,100030.59
2022-09-10T01:05:29.298Z,100031.01
2022-09-10T01:08:00.133Z,100029.30
2022-09-10T01:10:38.758Z,100032.77
2022-09-10T01:13:22.820Z,100030.45
2022-09-10T01:16:00.812Z,100033.64
2022-09-10T01:18:42.773Z,100030.75
2022-09-10T01:21:34.602Z,100029.58
2022-09-10T01:24:33.110Z,100024.09
2022-09-10T01:27:27.944Z,100020.39
2022-09-10T01:30:07.204Z,100025.29
2022-09-10T01:32:48.898Z,100025.58
2022-09-10T01:35:25.672Z,100021.67
2022-09-10T01:38:00.865Z,100024.98
2022-09-10T01:40:32.547Z,100025.77
2022-09-10T01:43:08.817Z,100027.20
2022-09-10T01:45:59.063Z,100027.65
2022-09-10T01:48:45.227Z,100029.66
2022-09-10T01:51:29.688Z,100027.67
2022-09-10T01:54:24.922Z,100029.97
2022-09-10T01:57:07.747Z,100034.39
2022-09-10T01:59:44.892Z,100031.65
2022-09-10T02:02:22.681Z,100025.65
2022-09-10T02:04:55.398Z,100025.63
2022-09-10T02:07:29.144Z,100026.04
2022-09-10T02:10:01.044Z,100026.11
2022-09-10T02:12:36.767Z,100023.09
2022-09-10T02:15:25.515Z,100024.28
2022-09-10T02:18:13.901Z,100028.86
2022-09-10T02:20:45.468Z,100031.73
2022-09-10T02:23:19.294Z,100030.42
2022-09-10T02:25:50.571Z,100032.80
2022-09-10T02:28:21.497Z,100031.09
2022-09-10T02:30:52.390Z,100032.80
2022-09-10T02:33:23.211Z,100032.06
2022-09-10T02:35:53.955Z,100033.73
2022-09-10T02:38:24.592Z,100037.70
2022-09-10T02:40:59.416Z,100031.66
2022-09-10T02:43:30.762Z,100029.77
2022-09-10T02:46:03.823Z,100023.59
2022-09-10T02:48:34.848Z,100019.90
2022-09-10T02:51:05.616Z,100021.70
2022-09-10T02:53:36.460Z,100022.25
2022-09-10T02:56:08.855Z,100027.42
2022-09-10T02:58:40.357Z,100025.52
2022-09-10T03:01:14.996Z,100028.96
2022-09-10T03:03:50.170Z,100026.52
2022-09-10T03:06:22.305Z,100029.91
2022-09-10T03:08:55.277Z,100025.91
2022-09-10T03:11:27.324Z,100026.14
2022-09-10T03:13:58.447Z,100027.31
2022-09-10T03:16:29.339Z,100031.03
2022-09-10T03:19:00.176Z,100029.14
2022-09-10T03:21:30.861Z,100026.56
2022-09-10T03:24:03.880Z,100026.47
2022-09-10T03:26:36.327Z,100027.81
2022-09-10T03:29:07.342Z,100026.08
2022-09-10T03:31:40.723Z,100025.70
2022-09-10T03:34:14.347Z,100014.61
2022-09-10T03:36:47.332Z,100027.38
2022-09-10T03:39:19.002Z,100024.44
2022-09-10T03:41:49.730Z,100025.43
2022-09-10T03:44:20.361Z,100019.19
2022-09-10T03:46:52.612Z,100025.27
2022-09-10T03:49:23.409Z,100025.31
2022-09-10T03:51:54.567Z,100025.98
2022-09-10T03:54:25.373Z,100028.48
2022-09-10T03:56:56.035Z,100028.05
2022-09-10T03:59:26.997Z,100028.55
2022-09-10T04:01:58.320Z,100029.95
2022-09-10T04:04:29.540Z,100032.08
2022-09-10T04:07:01.029Z,100031.97
2022-09-10T04:09:32.667Z,100034.00
2022-09-10T04:12:04.327Z,100034.01
2022-09-10T04:14:36.597Z,100037.05
2022-09-10T04:17:07.413Z,100036.06
2022-09-10T04:19:40.782Z,100036.70
2022-09-10T04:22:11.390Z,100035.11
2022-09-10T04:24:44.625Z,100044.46
2022-09-10T04:27:16.459Z,100037.52
2022-09-10T04:29:47.142Z,100038.23
2022-09-10T04:32:18.926Z,100036.52
2022-09-10T04:34:49.703Z,100041.75
2022-09-10T04:37:21.739Z,100042.46
2022-09-10T04:39:52.893Z,100040.45
2022-09-10T04:42:23.889Z,100043.62
2022-09-10T04:44:56.933Z,100046.05
2022-09-10T04:47:27.617Z,100047.55
2022-09-10T04:49:58.246Z,100050.36
2022-09-10T04:52:29.065Z,100051.61
2022-09-10T04:55:00.880Z,100052.26
2022-09-10T04:57:31.474Z,100060.34
2022-09-10T05:00:02.481Z,100058.17
2022-09-10T05:02:33.489Z,100061.19
2022-09-10T05:05:04.435Z,100060.73
2022-09-10T05:07:35.925Z,100066.05
2022-09-10T05:10:10.569Z,100069.30
2022-09-10T05:12:41.460Z,100064.64
2022-09-10T05:15:13.217Z,100071.84
2022-09-10T05:17:44.037Z,100073.51
2022-09-10T05:20:15.124Z,100074.86
2022-09-10T05:22:52.437Z,100069.84
2022-09-10T05:25:24.312Z,100066.73
2022-09-10T05:27:55.226Z,100066.64
2022-09-10T05:30:26.606Z,100069.48
2022-09-10T05:32:57.995Z,100071.89
2022-09-10T05:35:29.280Z,100069.21
2022-09-10T05:38:01.014Z,100061.27
2022-09-10T05:40:33.377Z,100063.70
2022-09-10T05:43:04.123Z,100058.52
2022-09-10T05:45:35.739Z,100061.02
2022-09-10T05:48:07.130Z,100061.09
2022-09-10T05:50:39.407Z,100060.05
2022-09-10T05:53:10.643Z,100057.16
2022-09-10T05:55:41.777Z,100062.08
2022-09-10T05:58:13.578Z,100065.40
2022-09-10T06:00:45.342Z,100061.77
2022-09-10T06:03:17.179Z,100066.98
2022-09-10T06:05:52.245Z,100066.02
2022-09-10T06:08:27.816Z,100061.74
2022-09-10T06:11:02.116Z,100058.05
2022-09-10T06:13:39.288Z,100057.48
2022-09-10T06:16:11.068Z,100061.40
2022-09-10T06:18:42.520Z,100063.39
2022-09-10T06:21:16.939Z,100063.46
2022-09-10T06:23:53.570Z,100063.13
2022-09-10T06:26:25.077Z,100061.92
2022-09-10T06:28:59.068Z,100065.20
2022-09-10T06:31:29.758Z,100060.86
2022-09-10T06:34:00.761Z,100067.74
2022-09-10T06:36:33.949Z,100073.89
2022-09-10T06:39:07.136Z,100070.27
2022-09-10T06:41:49.741Z,100069.40
2022-09-10T06:44:39.506Z,100069.59
2022-09-10T06:50:16.971Z,100067.92
2022-09-10T06:52:49.984Z,100066.90
2022-09-10T06:55:23.847Z,100059.88
2022-09-10T06:57:54.757Z,100057.88
2022-09-10T07:00:26.243Z,100056.36
2022-09-10T07:03:00.116Z,100057.08
2022-09-10T07:05:33.466Z,100056.85
2022-09-10T07:08:05.551Z,100055.17
2022-09-10T07:10:37.430Z,100052.59
2022-09-10T07:13:09.895Z,100054.18
2022-09-10T07:15:47.490Z,100055.27
2022-09-10T07:18:19.489Z,100053.45
2022-09-10T07:20:50.989Z,100051.42
2022-09-10T07:23:23.543Z,100046.58
2022-09-10T07:25:56.395Z,100044.11
2022-09-10T07:28:42.413Z,100039.08
2022-09-10T07:31:19.048Z,100042.30
2022-09-10T07:33:51.631Z,100043.62
2022-09-10T07:36:22.579Z,100049.52
2022-09-10T07:38:57.604Z,100049.88
2022-09-10T07:41:30.136Z,100053.38
2022-09-10T07:44:03.758Z,100050.27
2022-09-10T07:46:39.668Z,100046.50
2022-09-10T07:49:13.176Z,100051.70
2022-09-10T07:51:45.676Z,100051.78
2022-09-10T07:54:17.287Z,100050.87
2022-09-10T07:56:53.389Z,100057.98
2022-09-10T07:59:24.447Z,100061.25
2022-09-10T08:02:00.685Z,100064.67
2022-09-10T08:04:37.064Z,100070.66
2022-09-10T08:07:10.908Z,100068.79
2022-09-10T08:09:43.247Z,100072.92
2022-09-10T08:12:17.445Z,100071.76
2022-09-10T08:14:48.465Z,100075.52
2022-09-10T08:17:19.810Z,100077.02
2022-09-10T08:19:51.776Z,100076.63
2022-09-10T08:22:22.344Z,100076.36
2022-09-10T08:24:59.122Z,100073.69
2022-09-10T08:27:33.054Z,100070.26
2022-09-10T08:30:07.129Z,100075.79
2022-09-10T08:32:38.472Z,100074.30
2022-09-10T08:35:10.617Z,100073.11
2022-09-10T08:37:41.294Z,100073.80
2022-09-10T08:40:14.718Z,100071.51
2022-09-10T08:42:50.376Z,100071.31
2022-09-10T08:45:26.596Z,100070.98
2022-09-10T08:48:03.503Z,100072.34
2022-09-10T08:50:40.199Z,100066.16
2022-09-10T08:53:26.960Z,100066.63
2022-09-10T08:56:03.473Z,100063.25
2022-09-10T08:58:42.445Z,100064.25
2022-09-10T09:01:28.036Z,100063.52
2022-09-10T09:04:06.019Z,100060.23
2022-09-10T09:06:43.755Z,100067.91
2022-09-10T09:09:16.026Z,100066.11
2022-09-10T09:11:59.341Z,100068.45
2022-09-10T09:14:41.180Z,100072.48
2022-09-10T09:17:35.816Z,100070.96
2022-09-10T09:20:18.409Z,100074.10
2022-09-10T09:22:55.442Z,100069.27
2022-09-10T09:25:39.286Z,100071.52
2022-09-10T09:28:18.100Z,100070.73
2022-09-10T09:30:50.752Z,100071.20
2022-09-10T09:33:25.193Z,100066.59
2022-09-10T09:36:01.247Z,100061.77
2022-09-10T09:38:37.320Z,100060.25
2022-09-10T09:41:16.124Z,100053.44
2022-09-10T09:43:54.243Z,100055.78
2022-09-10T09:46:26.203Z,100056.52
2022-09-10T09:49:03.004Z,100058.84
2022-09-10T09:51:36.483Z,100057.79
2022-09-10T09:54:46.718Z,100057.81
2022-09-10T09:57:03.470Z,100053.42
2022-09-10T09:59:35.812Z,100052.20
2022-09-10T10:02:14.022Z,100047.38
2022-09-10T10:04:56.968Z,100053.08
2022-09-10T10:07:32.994Z,100041.49
2022-09-10T10:10:07.393Z,100041.25
2022-09-10T10:12:49.539Z,100042.00
2022-09-10T10:15:39.154Z,100037.92
2022-09-10T10:21:18.051Z,100032.05
2022-09-10T10:23:49.795Z,100034.03
2022-09-10T10:26:32.374Z,100034.92
2022-09-10T10:29:07.327Z,100028.59
2022-09-10T10:31:44.758Z,100031.58
2022-09-10T10:34:37.403Z,100028.45
2022-09-10T10:37:22.259Z,100025.04
2022-09-10T10:40:11.110Z,100015.16
2022-09-10T10:42:47.461Z,100016.81
2022-09-10T10:45:42.582Z,100017.97
2022-09-10T10:48:21.489Z,100019.77
2022-09-10T10:51:04.785Z,100019.70
2022-09-10T10:53:48.734Z,100018.43
2022-09-10T10:56:29.093Z,100016.38
2022-09-10T10:59:37.045Z,100014.74
2022-09-10T11:02:13.832Z,100012.30
2022-09-10T11:04:48.719Z,100012.65
2022-09-10T11:07:23.628Z,100007.09
2022-09-10T11:10:01.485Z,100004.93
2022-09-10T11:12:36.031Z,100006.70
2022-09-10T11:15:18.652Z,100002.52
2022-09-10T11:17:54.844Z,100003.48
2022-09-10T11:20:30.441Z,99996.05
2022-09-10T11:23:09.020Z,99991.95
2022-09-10T11:25:47.878Z,99993.05
2022-09-10T11:28:23.062Z,99996.41
2022-09-10T11:31:05.085Z,99997.74
2022-09-10T11:33:43.153Z,99996.59
2022-09-10T11:36:23.242Z,99996.92
2022-09-10T11:39:06.788Z,99995.73
2022-09-10T11:41:42.220Z,99989.35
2022-09-10T11:44:36.804Z,99989.01
2022-09-10T11:47:15.046Z,99982.34
2022-09-10T11:49:53.560Z,99978.11
2022-09-10T11:52:25.801Z,99973.77
2022-09-10T11:54:57.381Z,99964.28
2022-09-10T11:57:37.634Z,99963.64
2022-09-10T12:00:16.867Z,99964.92
2022-09-10T12:03:25.641Z,99964.98
2022-09-10T12:06:04.586Z,99969.71
2022-09-10T12:08:49.606Z,99968.18
2022-09-10T12:11:29.700Z,99966.73
2022-09-10T12:14:00.983Z,99965.46
2022-09-10T12:16:38.073Z,99957.42
2022-09-10T12:19:20.455Z,99954.52
2022-09-10T12:21:54.135Z,99951.28
2022-09-10T12:24:33.477Z,99954.88
2022-09-10T12:27:06.005Z,99949.45
2022-09-10T12:29:40.763Z,99956.08
2022-09-10T12:32:32.369Z,99953.11
2022-09-10T12:35:46.004Z,99953.88
2022-09-10T12:38:51.185Z,99958.86
2022-09-10T12:41:59.645Z,99961.38
2022-09-10T12:44:45.229Z,99958.84
2022-09-10T12:47:50.574Z,99960.91
2022-09-10T12:50:46.344Z,99964.05
2022-09-10T12:53:48.459Z,99958.36
2022-09-10T12:56:40.182Z,99957.45
2022-09-10T12:59:39.519Z,99957.20
2022-09-10T13:02:27.978Z,99953.23
2022-09-10T13:05:03.151Z,99951.55
2022-09-10T13:07:41.831Z,99947.88
2022-09-10T13:10:22.381Z,99950.70
2022-09-10T13:12:56.676Z,99950.98
2022-09-10T13:15:30.236Z,99944.42
2022-09-10T13:18:28.534Z,99943.07
2022-09-10T13:20:59.811Z,99939.67
2022-09-10T13:23:50.629Z,99941.38
2022-09-10T13:26:52.803Z,99929.15
2022-09-10T13:29:47.066Z,99931.52
2022-09-10T13:32:27.411Z,99928.02
2022-09-10T13:35:23.504Z,99919.66
2022-09-10T13:38:13.545Z,99914.01
2022-09-10T13:40:58.101Z,99927.86
2022-09-10T13:43:48.796Z,99921.33
2022-09-10T13:46:30.561Z,99924.08
2022-09-10T13:49:12.156Z,99921.00
2022-09-10T13:51:51.119Z,99921.69
2022-09-10T13:54:33.206Z,99922.16
2022-09-10T13:57:17.661Z,99927.30
2022-09-10T13:59:52.506Z,99927.02
2022-09-10T14:02:41.365Z,99930.33
2022-09-10T14:05:28.391Z,99924.84
2022-09-10T14:08:02.986Z,99927.86
2022-09-10T14:10:36.901Z,99922.61
2022-09-10T14:13:09.375Z,99923.05
2022-09-10T14:15:41.547Z,99923.12
2022-09-10T14:18:13.453Z,99920.22
2022-09-10T14:20:42.901Z,99918.48
2022-09-10T14:23:17.991Z,99914.56
2022-09-10T14:25:48.921Z,99911.92
2022-09-10T14:28:26.630Z,99913.38
2022-09-10T14:31:20.526Z,99911.95
2022-09-10T14:33:51.439Z,99907.55
2022-09-10T14:36:31.467Z,99915.09
2022-09-10T14:39:16.308Z,99915.34
2022-09-10T14:41:47.712Z,99915.46
2022-09-10T14:44:30.537Z,99919.27
2022-09-10T14:47:12.963Z,99921.88
2022-09-10T14:49:47.106Z,99924.93
2022-09-10T14:52:18.161Z,99921.16
2022-09-10T14:54:48.987Z,99921.38
2022-09-10T14:57:19.743Z,99923.90
2022-09-10T14:59:55.280Z,99920.54
2022-09-10T15:02:29.776Z,99917.85
2022-09-10T15:05:00.469Z,99919.91
2022-09-10T15:07:31.541Z,99910.96
2022-09-10T15:10:02.216Z,99914.02
2022-09-10T15:12:34.123Z,99910.27
2022-09-10T15:15:03.144Z,99916.83
2022-09-10T15:17:35.067Z,99924.69
2022-09-10T15:20:04.859Z,99926.19
2022-09-10T15:22:35.835Z,99926.55
2022-09-10T15:25:10.526Z,99930.88
2022-09-10T15:27:41.882Z,99933.08
2022-09-10T15:30:13.423Z,99932.77
2022-09-10T15:32:45.989Z,99934.33
2022-09-10T15:35:17.003Z,99938.09
2022-09-10T15:37:47.686Z,99942.43
2022-09-10T15:40:18.655Z,99945.84
2022-09-10T15:42:49.905Z,99950.17
2022-09-10T15:45:20.899Z,99956.36
2022-09-10T15:47:52.259Z,99955.38
2022-09-10T15:50:22.995Z,99957.79
2022-09-10T15:52:53.731Z,99953.53
2022-09-10T15:55:24.331Z,99957.02
2022-09-10T15:57:55.176Z,99960.41
2022-09-10T16:00:26.062Z,99965.80
2022-09-10T16:02:56.721Z,99968.24
2022-09-10T16:05:27.379Z,99969.25
2022-09-10T16:07:58.026Z,99971.86
2022-09-10T16:10:28.940Z,99975.96
2022-09-10T16:13:00.066Z,99969.62
2022-09-10T16:15:31.041Z,99971.41
2022-09-10T16:18:02.327Z,99968.78
2022-09-10T16:20:33.713Z,99971.08
2022-09-10T16:23:04.952Z,99973.41
2022-09-10T16:25:35.677Z,99976.77
2022-09-10T16:28:07.006Z,99978.50
2022-09-10T16:30:37.744Z,99977.76
2022-09-10T16:33:09.724Z,99971.84
2022-09-10T16:35:38.903Z,99975.12
2022-09-10T16:38:10.430Z,99978.95
2022-09-10T16:40:41.022Z,99976.03
2022-09-10T16:43:12.862Z,99975.45
2022-09-10T16:45:52.089Z,99972.86
2022-09-10T16:48:22.921Z,99971.30
2022-09-10T16:50:53.612Z,99974.08
2022-09-10T16:53:24.291Z,99976.80
2022-09-10T16:56:00.753Z,99976.66
2022-09-10T16:58:35.751Z,99979.22
2022-09-10T17:01:09.617Z,99981.41
2022-09-10T17:03:42.770Z,99980.48
2022-09-10T17:06:18.260Z,99980.30
2022-09-10T17:08:50.134Z,99982.41
2022-09-10T17:11:22.910Z,99982.96
2022-09-10T17:13:54.168Z,99983.70
2022-09-10T17:16:32.717Z,99980.09
2022-09-10T17:19:07.046Z,99980.55
2022-09-10T17:21:39.384Z,99982.74
2022-09-10T17:24:12.410Z,99987.86
2022-09-10T17:26:43.759Z,99985.83
2022-09-10T17:29:15.974Z,99983.27
2022-09-10T17:31:47.626Z,99986.05
2022-09-10T17:34:21.444Z,99985.69
2022-09-10T17:36:52.058Z,99986.34
2022-09-10T17:39:22.760Z,99985.27
2022-09-10T17:41:55.220Z,99985.16
2022-09-10T17:44:26.883Z,99987.94
2022-09-10T17:46:57.545Z,99990.85
2022-09-10T17:49:28.663Z,99988.86
2022-09-10T17:52:00.415Z,99987.98
2022-09-10T17:54:31.239Z,99993.32
2022-09-10T17:57:02.016Z,99991.84
2022-09-10T17:59:32.847Z,99987.67
2022-09-10T18:02:03.864Z,99995.14
2022-09-10T18:04:35.088Z,99994.76
2022-09-10T18:07:06.590Z,100001.48
2022-09-10T18:09:37.580Z,100004.34
2022-09-10T18:12:09.024Z,100009.04
2022-09-10T18:14:40.103Z,100005.15
2022-09-10T18:17:10.859Z,100006.04
2022-09-10T18:19:41.663Z,100012.55
2022-09-10T18:22:12.787Z,100007.82
2022-09-10T18:24:44.866Z,100010.10
2022-09-10T18:27:14.193Z,100007.42
2022-09-10T18:29:45.405Z,100003.90
2022-09-10T18:32:16.146Z,100004.81
2022-09-10T18:34:46.916Z,100003.54
2022-09-10T18:37:17.951Z,100005.45
2022-09-10T18:39:49.356Z,100008.45
2022-09-10T18:42:20.352Z,100010.11
2022-09-10T18:44:51.058Z,100010.54
2022-09-10T18:47:43.593Z,100011.44
2022-09-10T18:50:15.660Z,100014.04
2022-09-10T18:52:46.401Z,100015.36
2022-09-10T18:55:17.192Z,100020.73
2022-09-10T18:57:48.136Z,100030.03
2022-09-10T19:00:19.543Z,100035.53
2022-09-10T19:02:50.437Z,100036.05
2022-09-10T19:05:21.121Z,100039.58
2022-09-10T19:07:52.288Z,100042.13
2022-09-10T19:10:23.169Z,100046.50
2022-09-10T19:12:54.645Z,100047.55
2022-09-10T19:15:27.920Z,100048.14
2022-09-10T19:17:59.954Z,100049.34
2022-09-10T19:20:37.280Z,100051.52
2022-09-10T19:23:09.538Z,100052.75
2022-09-10T19:25:40.528Z,100049.56
2022-09-10T19:28:11.183Z,100049.45
2022-09-10T19:30:42.009Z,100052.39
2022-09-10T19:33:16.036Z,100049.14
2022-09-10T19:35:47.583Z,100050.30
2022-09-10T19:38:36.676Z,100050.27
2022-09-10T19:41:08.132Z,100055.78
2022-09-10T19:43:40.084Z,100057.25
2022-09-10T19:46:12.351Z,100060.01
2022-09-10T19:48:43.509Z,100057.34
2022-09-10T19:51:16.470Z,100059.80
2022-09-10T19:53:47.887Z,100059.23
2022-09-10T19:56:20.862Z,100063.90
2022-09-10T19:58:53.217Z,100058.63
2022-09-10T20:01:26.725Z,100059.69
2022-09-10T20:03:58.132Z,100054.69
2022-09-10T20:06:30.757Z,100058.89
2022-09-10T20:09:01.784Z,100054.02
2022-09-10T20:11:35.069Z,100056.35
2022-09-10T20:14:08.146Z,100055.27
2022-09-10T20:16:41.679Z,100049.19
2022-09-10T20:19:14.478Z,100041.61
2022-09-10T20:21:46.464Z,100037.70
2022-09-10T20:24:17.884Z,100040.73
2022-09-10T20:26:49.137Z,100041.92
2022-09-10T20:29:22.448Z,100041.95
2022-09-10T20:31:53.613Z,100040.51
2022-09-10T20:34:25.504Z,100041.73
2022-09-10T20:36:56.314Z,100040.45
2022-09-10T20:39:27.260Z,100038.98
2022-09-10T20:41:59.379Z,100040.96
2022-09-10T20:44:29.415Z,100038.30
2022-09-10T20:47:00.230Z,100036.98
2022-09-10T20:49:30.904Z,100033.40
2022-09-10T20:52:01.576Z,100034.33
2022-09-10T20:54:32.210Z,100036.50
2022-09-10T20:57:03.290Z,100035.13
2022-09-10T20:59:34.679Z,100036.89
2022-09-10T21:02:05.621Z,100033.09
2022-09-10T21:04:36.780Z,100036.20
2022-09-10T21:07:07.406Z,100035.55
2022-09-10T21:09:38.352Z,100037.08
2022-09-10T21:12:11.391Z,100031.46
2022-09-10T21:14:42.043Z,100033.47
2022-09-10T21:17:12.631Z,100034.14
2022-09-10T21:19:43.570Z,100032.01
2022-09-10T21:22:14.380Z,100034.03
2022-09-10T21:24:44.972Z,100030.33
2022-09-10T21:27:15.621Z,100032.08
2022-09-10T21:29:46.607Z,100030.77
2022-09-10T21:32:17.225Z,100035.12
2022-09-10T21:34:48.584Z,100040.79
2022-09-10T21:37:19.548Z,100040.90
2022-09-10T21:39:50.305Z,100039.85
2022-09-10T21:42:21.167Z,100035.64
2022-09-10T21:44:51.831Z,100042.58
2022-09-10T21:47:22.427Z,100043.00
2022-09-10T21:49:53.117Z,100042.13
2022-09-10T21:52:24.190Z,100039.90
2022-09-10T21:54:54.869Z,100040.98
2022-09-10T21:57:25.468Z,100045.82
2022-09-10T21:59:56.015Z,100046.86
2022-09-10T22:02:26.925Z,100050.61
2022-09-10T22:04:57.671Z,100051.06
2022-09-10T22:07:28.243Z,100053.05
2022-09-10T22:09:59.247Z,100058.23
2022-09-10T22:12:29.977Z,100056.63
2022-09-10T22:15:00.632Z,100057.58
2022-09-10T22:17:31.358Z,100060.96
2022-09-10T22:20:02.109Z,100061.05
2022-09-10T22:22:32.743Z,100063.11
2022-09-10T22:25:03.403Z,100067.38
2022-09-10T22:27:34.117Z,100063.35
2022-09-10T22:30:05.352Z,100065.60
2022-09-10T22:32:37.409Z,100067.95
2022-09-10T22:35:09.335Z,100068.02
2022-09-10T22:37:40.158Z,100069.41
2022-09-10T22:40:12.318Z,100069.19
2022-09-10T22:42:42.925Z,100070.53
2022-09-10T22:45:14.382Z,100074.30
2022-09-10T22:47:44.981Z,100072.05
2022-09-10T22:50:16.393Z,100072.09
2022-09-10T22:52:46.958Z,100071.95
2022-09-10T22:55:17.734Z,100072.58
2022-09-10T22:57:48.404Z,100072.02
2022-09-10T23:00:19.226Z,100073.81
2022-09-10T23:02:49.911Z,100076.61
2022-09-10T23:05:20.719Z,100077.93
2022-09-10T23:07:52.106Z,100079.60
2022-09-10T23:10:22.900Z,100079.15
2022-09-10T23:12:53.608Z,100083.23
2022-09-10T23:15:24.230Z,100082.38
2022-09-10T23:17:56.736Z,100083.98
2022-09-10T23:20:27.554Z,100084.34
2022-09-10T23:22:58.225Z,100086.14
2022-09-10T23:25:28.856Z,100085.30
2022-09-10T23:28:00.514Z,100088.04
2022-09-10T23:30:33.033Z,100084.33
2022-09-10T23:33:03.632Z,100087.19
2022-09-10T23:35:34.308Z,100092.45
2022-09-10T23:38:05.487Z,100098.06
2022-09-10T23:40:36.154Z,100096.98
2022-09-10T23:43:06.838Z,100096.72
2022-09-10T23:45:37.519Z,100097.58
2022-09-10T23:48:08.578Z,100094.44
2022-09-10T23:50:39.245Z,100096.42
2022-09-10T23:53:10.021Z,100094.23
2022-09-10T23:55:40.579Z,100090.45
2022-09-10T23:58:11.389Z,100091.61
